Aviation Digital Data Service (ADDS)

Output produced by METARs form (0417 UTC 26 April 2019)
found at http://www.aviationweather.gov/metar/data/
 
METAR text: RJFG 260400Z 28021KT 8000 FEW015 19/15 Q1010
Conditions at: RJFG (TANEGASHIMA AIRP, JP) observed 0400 UTC 26 April 2019
Temperature: 19.0°C (66°F)
Dewpoint: 15.0°C (59°F) [RH = 78%]
Pressure (altimeter): 29.82 inches Hg (1010.0 mb)
Winds: from the W (280 degrees) at 24 MPH (21 knots; 10.8 m/s)
Visibility: 5 miles ( 8 km)
Ceiling: at least 12,000 feet AGL
Clouds: few clouds at 1500 feet AGL
Weather: no significant weather observed at this time

METAR text: RJFG 260300Z 29018KT 8000 FEW009 BKN020 18/15 Q1010
Conditions at: RJFG (TANEGASHIMA AIRP, JP) observed 0300 UTC 26 April 2019
Temperature: 18.0°C (64°F)
Dewpoint: 15.0°C (59°F) [RH = 83%]
Pressure (altimeter): 29.82 inches Hg (1010.0 mb)
Winds: from the WNW (290 degrees) at 21 MPH (18 knots; 9.3 m/s)
Visibility: 5 miles ( 8 km)
Ceiling: 2000 feet AGL
Clouds: few clouds at 900 feet AGL
broken clouds at 2000 feet AGL
Weather: no significant weather observed at this time

METAR text: RJFG 260200Z 28018KT 8000 FEW010 BKN020 19/15 Q1010
Conditions at: RJFG (TANEGASHIMA AIRP, JP) observed 0200 UTC 26 April 2019
Temperature: 19.0°C (66°F)
Dewpoint: 15.0°C (59°F) [RH = 78%]
Pressure (altimeter): 29.82 inches Hg (1010.0 mb)
Winds: from the W (280 degrees) at 21 MPH (18 knots; 9.3 m/s)
Visibility: 5 miles ( 8 km)
Ceiling: 2000 feet AGL
Clouds: few clouds at 1000 feet AGL
broken clouds at 2000 feet AGL
Weather: no significant weather observed at this time

METAR text: RJFG 260100Z 29018KT 8000 FEW008 SCT010 BKN015 18/16 Q1010
Conditions at: RJFG (TANEGASHIMA AIRP, JP) observed 0100 UTC 26 April 2019
Temperature: 18.0°C (64°F)
Dewpoint: 16.0°C (61°F) [RH = 88%]
Pressure (altimeter): 29.82 inches Hg (1010.0 mb)
Winds: from the WNW (290 degrees) at 21 MPH (18 knots; 9.3 m/s)
Visibility: 5 miles ( 8 km)
Ceiling: 1500 feet AGL
Clouds: few clouds at 800 feet AGL
scattered clouds at 1000 feet AGL
broken clouds at 1500 feet AGL
Weather: no significant weather observed at this time

METAR text: RJFG 260000Z 29018KT 8000 FEW015 SCT/// 19/15 Q1010
Conditions at: RJFG (TANEGASHIMA AIRP, JP) observed 0000 UTC 26 April 2019
Temperature: 19.0°C (66°F)
Dewpoint: 15.0°C (59°F) [RH = 78%]
Pressure (altimeter): 29.82 inches Hg (1010.0 mb)
Winds: from the WNW (290 degrees) at 21 MPH (18 knots; 9.3 m/s)
Visibility: 5 miles ( 8 km)
Ceiling: at least 12,000 feet AGL
Clouds: few clouds at 1500 feet AGL
Weather: no significant weather observed at this time

METAR text: RJFG 252330Z 29015KT 9999 FEW010 SCT015 BKN020 18/15 Q1010
Conditions at: RJFG (TANEGASHIMA AIRP, JP) observed 2330 UTC 25 April 2019
Temperature: 18.0°C (64°F)
Dewpoint: 15.0°C (59°F) [RH = 83%]
Pressure (altimeter): 29.82 inches Hg (1010.0 mb)
Winds: from the WNW (290 degrees) at 17 MPH (15 knots; 7.7 m/s)
Visibility: 6 or more miles (10+ km)
Ceiling: 2000 feet AGL
Clouds: few clouds at 1000 feet AGL
scattered clouds at 1500 feet AGL
broken clouds at 2000 feet AGL
Weather: no significant weather observed at this time

METAR text: RJFG 250900Z 29013KT 5000 BR FEW002 SCT003 BKN005 19/18 Q1007
Conditions at: RJFG (TANEGASHIMA AIRP, JP) observed 0900 UTC 25 April 2019
Temperature: 19.0°C (66°F)
Dewpoint: 18.0°C (64°F) [RH = 94%]
Pressure (altimeter): 29.73 inches Hg (1007.0 mb)
Winds: from the WNW (290 degrees) at 15 MPH (13 knots; 6.7 m/s)
Visibility: 3 miles ( 5 km)
Ceiling: 500 feet AGL
Clouds: few clouds at 200 feet AGL
scattered clouds at 300 feet AGL
broken clouds at 500 feet AGL
Weather: BR  (mist)

METAR text: RJFG 250831Z 28013KT 4000 BR FEW002 SCT003 BKN004 19/18 Q1007 RMK 1ST002 3ST003 5ST004 A2975
Conditions at: RJFG (TANEGASHIMA AIRP, JP) observed 0831 UTC 25 April 2019
Temperature: 19.0°C (66°F)
Dewpoint: 18.0°C (64°F) [RH = 94%]
Pressure (altimeter): 29.73 inches Hg (1007.0 mb)
Winds: from the W (280 degrees) at 15 MPH (13 knots; 6.7 m/s)
Visibility: 2.49 miles (4.01 km)
Ceiling: 400 feet AGL
Clouds: few clouds at 200 feet AGL
scattered clouds at 300 feet AGL
broken clouds at 400 feet AGL
Weather: BR  (mist)

METAR text: RJFG 250800Z 28013KT 2000 BR FEW001 SCT002 BKN003 19/18 Q1007
Conditions at: RJFG (TANEGASHIMA AIRP, JP) observed 0800 UTC 25 April 2019
Temperature: 19.0°C (66°F)
Dewpoint: 18.0°C (64°F) [RH = 94%]
Pressure (altimeter): 29.73 inches Hg (1007.0 mb)
Winds: from the W (280 degrees) at 15 MPH (13 knots; 6.7 m/s)
Visibility: 1.24 miles (2.00 km)
Ceiling: 300 feet AGL
Clouds: few clouds at 100 feet AGL
scattered clouds at 200 feet AGL
broken clouds at 300 feet AGL
Weather: BR  (mist)

METAR text: RJFG 250728Z 28013KT 3000 BR FEW001 SCT003 BKN005 19/18 Q1007 RMK 1ST001 3ST003 5ST005 A2975
Conditions at: RJFG (TANEGASHIMA AIRP, JP) observed 0728 UTC 25 April 2019
Temperature: 19.0°C (66°F)
Dewpoint: 18.0°C (64°F) [RH = 94%]
Pressure (altimeter): 29.73 inches Hg (1007.0 mb)
Winds: from the W (280 degrees) at 15 MPH (13 knots; 6.7 m/s)
Visibility: 1.86 miles (2.99 km)
Ceiling: 500 feet AGL
Clouds: few clouds at 100 feet AGL
scattered clouds at 300 feet AGL
broken clouds at 500 feet AGL
Weather: BR  (mist)

METAR text: RJFG 250720Z 28013KT 6000 FEW002 SCT004 BKN006 20/18 Q1007 RMK 1ST002 3ST004 5ST006 A2974
Conditions at: RJFG (TANEGASHIMA AIRP, JP) observed 0720 UTC 25 April 2019
Temperature: 20.0°C (68°F)
Dewpoint: 18.0°C (64°F) [RH = 88%]
Pressure (altimeter): 29.73 inches Hg (1007.0 mb)
Winds: from the W (280 degrees) at 15 MPH (13 knots; 6.7 m/s)
Visibility: 4 miles ( 6 km)
Ceiling: 600 feet AGL
Clouds: few clouds at 200 feet AGL
scattered clouds at 400 feet AGL
broken clouds at 600 feet AGL
Weather: no significant weather observed at this time

METAR text: RJFG 250700Z 29014KT 8000 FEW001 SCT006 BKN012 20/18 Q1006
Conditions at: RJFG (TANEGASHIMA AIRP, JP) observed 0700 UTC 25 April 2019
Temperature: 20.0°C (68°F)
Dewpoint: 18.0°C (64°F) [RH = 88%]
Pressure (altimeter): 29.70 inches Hg (1006.0 mb)
Winds: from the WNW (290 degrees) at 16 MPH (14 knots; 7.2 m/s)
Visibility: 5 miles ( 8 km)
Ceiling: 1200 feet AGL
Clouds: few clouds at 100 feet AGL
scattered clouds at 600 feet AGL
broken clouds at 1200 feet AGL
Weather: no significant weather observed at this time

METAR text: RJFG 250600Z 29014KT 9999 FEW006 SCT015 BKN/// 21/19 Q1006
Conditions at: RJFG (TANEGASHIMA AIRP, JP) observed 0600 UTC 25 April 2019
Temperature: 21.0°C (70°F)
Dewpoint: 19.0°C (66°F) [RH = 88%]
Pressure (altimeter): 29.70 inches Hg (1006.0 mb)
Winds: from the WNW (290 degrees) at 16 MPH (14 knots; 7.2 m/s)
Visibility: 6 or more miles (10+ km)
Ceiling: at least 12,000 feet AGL
Clouds: few clouds at 600 feet AGL
scattered clouds at 1500 feet AGL
Weather: no significant weather observed at this time

METAR text: RJFG 250500Z 28015KT 8000 FEW005 SCT010 BKN015 21/19 Q1007
Conditions at: RJFG (TANEGASHIMA AIRP, JP) observed 0500 UTC 25 April 2019
Temperature: 21.0°C (70°F)
Dewpoint: 19.0°C (66°F) [RH = 88%]
Pressure (altimeter): 29.73 inches Hg (1007.0 mb)
Winds: from the W (280 degrees) at 17 MPH (15 knots; 7.7 m/s)
Visibility: 5 miles ( 8 km)
Ceiling: 1500 feet AGL
Clouds: few clouds at 500 feet AGL
scattered clouds at 1000 feet AGL
broken clouds at 1500 feet AGL
Weather: no significant weather observed at this time

METAR text: RJFG 250421Z 29016KT 6000 FEW003 SCT008 BKN015 20/19 Q1007 RMK 1ST003 3CU008 5CU015 A2974
Conditions at: RJFG (TANEGASHIMA AIRP, JP) observed 0421 UTC 25 April 2019
Temperature: 20.0°C (68°F)
Dewpoint: 19.0°C (66°F) [RH = 94%]
Pressure (altimeter): 29.73 inches Hg (1007.0 mb)
Winds: from the WNW (290 degrees) at 18 MPH (16 knots; 8.2 m/s)
Visibility: 4 miles ( 6 km)
Ceiling: 1500 feet AGL
Clouds: few clouds at 300 feet AGL
scattered clouds at 800 feet AGL
broken clouds at 1500 feet AGL
Weather: no significant weather observed at this time

METAR text: RJFG 250400Z 29017KT 1500 R31/0800VP1800U BR FEW001 SCT002 BKN003 20/19 Q1007
Conditions at: RJFG (TANEGASHIMA AIRP, JP) observed 0400 UTC 25 April 2019
Temperature: 20.0°C (68°F)
Dewpoint: 19.0°C (66°F) [RH = 94%]
Pressure (altimeter): 29.73 inches Hg (1007.0 mb)
Winds: from the WNW (290 degrees) at 20 MPH (17 knots; 8.7 m/s)
Visibility: 0.93 miles (1.50 km)
Ceiling: 300 feet AGL
Clouds: few clouds at 100 feet AGL
scattered clouds at 200 feet AGL
broken clouds at 300 feet AGL
Weather: BR  (mist)

METAR text: RJFG 250300Z 30015KT 0200 R31/0300V0600U FG FEW000 SCT001 BKN002 21/20 Q1006
Conditions at: RJFG (TANEGASHIMA AIRP, JP) observed 0300 UTC 25 April 2019
Temperature: 21.0°C (70°F)
Dewpoint: 20.0°C (68°F) [RH = 94%]
Pressure (altimeter): 29.70 inches Hg (1006.0 mb)
Winds: from the WNW (300 degrees) at 17 MPH (15 knots; 7.7 m/s)
Visibility: 0.12 miles (0.19 km)
Ceiling: 200 feet AGL
Clouds: few clouds at 0 feet AGL
scattered clouds at 100 feet AGL
broken clouds at 200 feet AGL
Weather: FG  (fog)

METAR text: RJFG 250200Z 30011KT 0200 R31/0200V0250N -SHRA FG FEW000 SCT001 BKN002 21/20 Q1006
Conditions at: RJFG (TANEGASHIMA AIRP, JP) observed 0200 UTC 25 April 2019
Temperature: 21.0°C (70°F)
Dewpoint: 20.0°C (68°F) [RH = 94%]
Pressure (altimeter): 29.70 inches Hg (1006.0 mb)
Winds: from the WNW (300 degrees) at 13 MPH (11 knots; 5.7 m/s)
Visibility: 0.12 miles (0.19 km)
Ceiling: 200 feet AGL
Clouds: few clouds at 0 feet AGL
scattered clouds at 100 feet AGL
broken clouds at 200 feet AGL
Weather: -SHRA FG  (light rain showers, fog)

METAR text: RJFG 250139Z 30010KT 0400 R31/0500VP1800D -SHRA FG FEW001 SCT002 BKN003 21/20 Q1006 RMK 1ST001 3ST002 5ST003 A2973
Conditions at: RJFG (TANEGASHIMA AIRP, JP) observed 0139 UTC 25 April 2019
Temperature: 21.0°C (70°F)
Dewpoint: 20.0°C (68°F) [RH = 94%]
Pressure (altimeter): 29.70 inches Hg (1006.0 mb)
Winds: from the WNW (300 degrees) at 12 MPH (10 knots; 5.1 m/s)
Visibility: 0.25 miles (0.40 km)
Ceiling: 300 feet AGL
Clouds: few clouds at 100 feet AGL
scattered clouds at 200 feet AGL
broken clouds at 300 feet AGL
Weather: -SHRA FG  (light rain showers, fog)

METAR text: RJFG 250100Z 29009KT 0700 R31/P1800N FG FEW001 SCT002 BKN003 21/20 Q1006
Conditions at: RJFG (TANEGASHIMA AIRP, JP) observed 0100 UTC 25 April 2019
Temperature: 21.0°C (70°F)
Dewpoint: 20.0°C (68°F) [RH = 94%]
Pressure (altimeter): 29.70 inches Hg (1006.0 mb)
Winds: from the WNW (290 degrees) at 10 MPH (9 knots; 4.6 m/s)
Visibility: 0.43 miles (0.69 km)
Ceiling: 300 feet AGL
Clouds: few clouds at 100 feet AGL
scattered clouds at 200 feet AGL
broken clouds at 300 feet AGL
Weather: FG  (fog)

METAR text: RJFG 250000Z 28006KT 8000 FEW003 SCT010 BKN020 22/20 Q1006
Conditions at: RJFG (TANEGASHIMA AIRP, JP) observed 0000 UTC 25 April 2019
Temperature: 22.0°C (72°F)
Dewpoint: 20.0°C (68°F) [RH = 88%]
Pressure (altimeter): 29.70 inches Hg (1006.0 mb)
Winds: from the W (280 degrees) at 7 MPH (6 knots; 3.1 m/s)
Visibility: 5 miles ( 8 km)
Ceiling: 2000 feet AGL
Clouds: few clouds at 300 feet AGL
scattered clouds at 1000 feet AGL
broken clouds at 2000 feet AGL
Weather: no significant weather observed at this time

METAR text: RJFG 242330Z VRB01KT 6000 FEW002 SCT003 BKN010 21/21 Q1006
Conditions at: RJFG (TANEGASHIMA AIRP, JP) observed 2330 UTC 24 April 2019
Temperature: 21.0°C (70°F)
Dewpoint: 21.0°C (70°F) [RH = 100%]
Pressure (altimeter): 29.70 inches Hg (1006.0 mb)
Winds: variable direction winds at 1 MPH (1 knots; 0.5 m/s)
Visibility: 4 miles ( 6 km)
Ceiling: 1000 feet AGL
Clouds: few clouds at 200 feet AGL
scattered clouds at 300 feet AGL
broken clouds at 1000 feet AGL
Weather: no significant weather observed at this time

METAR text: RJFG 242310Z VRB02KT 4000 BR FEW003 SCT010 BKN035 21/20 Q1006 RMK 1ST003 3CU010 5CU035 A2971
Conditions at: RJFG (TANEGASHIMA AIRP, JP) observed 2310 UTC 24 April 2019
Temperature: 21.0°C (70°F)
Dewpoint: 20.0°C (68°F) [RH = 94%]
Pressure (altimeter): 29.70 inches Hg (1006.0 mb)
Winds: variable direction winds at 2 MPH (2 knots; 1.0 m/s)
Visibility: 2.49 miles (4.01 km)
Ceiling: 3500 feet AGL
Clouds: few clouds at 300 feet AGL
scattered clouds at 1000 feet AGL
broken clouds at 3500 feet AGL
Weather: BR  (mist)